Hovedside
METAR-TAF:

METAR-TAF

Lufthavner :

Praha, Tsjekkia

breddegrad: 50-12-59N, lengdegrad: 014-23-42E, høyde over havet: 280 m

Gjeldene værobservasjon

Denne rapporten ble laget for 29 minutter siden, klokken 11:00 UTC
Vind 8 kt fra Vest-nordvest, skiftende mellom Vest og Nord-nordvest
Temperatur 25°C
Luftfuktighet 57%
Trykk 1014 hPa
Sikt 10 km eller mer
ingen skyer under 1500 m og ingen bygeskyer

METAR: LKVO 191100Z 30008KT 270V340 CAVOK 25/16 Q1014

Tid: 13:29 (11:29 UTC)


TAF: fraværende

Værobservasjoner og værvarsel for over 4000 flyplasser (METAR- og TAF-rapporter).

Tilgjengelige stasjoner er representert av de røde og gule prikkene på kartet.

Hold musepekeren over prikken for å se navnet på stasjonen.

Klikk så for å se værobservasjoner og -varsler.

For å forandre kartet kan du klikke på den grønne knappen med svart kryss for å zoome inn, på den grønne knappen med strek for å zoome ut, eller på de grønne pilene for å se tilstøtende kart.


METAR-TAF: